Time;durP1;ratioP1;P1;durP2;ratioP2;P2;SDS_P1;SDS_P2;PMS_P1;PMS_P2;Temp;Humidity;BMP_temperature;BMP_pressure;BME280_temperature;BME280_humidity;BME280_pressure;Samples;Min_cycle;Max_cycle;Signal;HPM_P1;HPM_P2
2023/04/23 00:00:39;;;;;;;3.22;2.50;;;;;;;18.93;45.78;96311.97;5031337;28;20018;-30
2023/04/23 00:03:11;;;;;;;2.88;2.28;;;;;;;19.12;45.43;96311.69;5031046;28;20021;-30
2023/04/23 00:05:38;;;;;;;3.38;1.98;;;;;;;19.06;45.61;96310.84;5026975;28;20055;-30
2023/04/23 00:08:04;;;;;;;5.30;2.50;;;;;;;19.05;45.48;96307.34;5040149;28;20025;-29
2023/04/23 00:10:30;;;;;;;3.80;2.50;;;;;;;18.87;45.41;96313.19;5040869;28;20049;-30
2023/04/23 00:12:56;;;;;;;6.65;2.88;;;;;;;18.87;45.37;96304.94;5033320;28;20041;-29
2023/04/23 00:15:22;;;;;;;2.90;2.03;;;;;;;18.95;45.04;96309.50;5032155;28;20032;-30
2023/04/23 00:17:48;;;;;;;3.67;2.08;;;;;;;19.02;44.55;96295.34;5033434;28;20079;-31
2023/04/23 00:20:15;;;;;;;5.75;2.25;;;;;;;19.13;44.49;96304.94;5036858;28;20060;-30
2023/04/23 00:22:41;;;;;;;2.75;1.92;;;;;;;19.02;44.38;96298.09;5049653;28;20017;-30
2023/04/23 00:25:08;;;;;;;2.78;2.20;;;;;;;18.88;44.60;96296.22;5038036;28;20082;-30
2023/04/23 00:27:33;;;;;;;3.15;2.10;;;;;;;18.90;44.41;96299.22;5033392;28;20035;-30
2023/04/23 00:29:59;;;;;;;3.92;1.83;;;;;;;19.10;44.19;96303.16;5033465;28;20021;-30
2023/04/23 00:32:24;;;;;;;1.92;1.55;;;;;;;19.02;43.97;96291.84;5033465;28;20021;-29
2023/04/23 00:34:50;;;;;;;3.35;1.70;;;;;;;18.81;44.36;96304.84;5040432;28;20056;-30
2023/04/23 00:37:16;;;;;;;2.17;1.55;;;;;;;19.02;43.60;96298.09;5040541;28;20017;-30
2023/04/23 00:39:42;;;;;;;2.40;1.60;;;;;;;19.04;43.14;96296.88;5033220;28;20043;-30
2023/04/23 00:42:11;;;;;;;2.22;1.75;;;;;;;19.00;43.13;96300.56;5029360;28;20024;-31
2023/04/23 00:44:37;;;;;;;2.53;1.85;;;;;;;19.06;43.11;96288.88;5036913;28;20109;-31
2023/04/23 00:47:04;;;;;;;2.20;1.65;;;;;;;19.01;43.24;96285.59;5043910;28;20025;-30
2023/04/23 00:49:30;;;;;;;2.55;1.63;;;;;;;19.00;43.04;96283.31;5041907;28;20017;-30
2023/04/23 00:51:55;;;;;;;3.00;1.98;;;;;;;19.08;43.27;96283.63;5038304;28;20024;-31
2023/04/23 00:54:21;;;;;;;2.67;1.98;;;;;;;18.89;43.79;96278.47;5036514;28;20381;-31
2023/04/23 00:56:48;;;;;;;2.60;1.80;;;;;;;18.88;43.48;96273.47;5036481;28;20531;-31
2023/04/23 00:59:14;;;;;;;2.10;1.65;;;;;;;18.75;43.90;96276.59;5045306;28;20029;-30
2023/04/23 01:01:40;;;;;;;2.60;2.08;;;;;;;18.91;43.39;96275.25;5041908;28;20021;-29
2023/04/23 01:04:08;;;;;;;2.42;1.75;;;;;;;18.61;44.09;96280.94;5050051;28;20067;-30
2023/04/23 01:06:34;;;;;;;2.25;2.03;;;;;;;18.72;43.67;96277.53;5029317;28;20025;-31
2023/04/23 01:09:00;;;;;;;2.20;1.60;;;;;;;18.89;43.33;96281.22;5036183;28;20561;-30
2023/04/23 01:11:25;;;;;;;2.60;1.98;;;;;;;18.77;43.64;96278.84;5036242;28;20026;-30
2023/04/23 01:13:51;;;;;;;2.70;2.08;;;;;;;18.74;44.12;96275.06;5043648;28;20025;-30
2023/04/23 01:16:16;;;;;;;3.45;1.70;;;;;;;18.70;43.97;96276.50;5043160;28;20028;-30
2023/04/23 01:18:42;;;;;;;3.53;2.30;;;;;;;18.86;43.42;96278.69;5036023;28;20053;-30
2023/04/23 01:21:13;;;;;;;3.70;1.73;;;;;;;18.76;43.65;96283.59;5035971;28;20375;-30
2023/04/23 01:23:38;;;;;;;4.30;1.90;;;;;;;18.76;43.65;96283.59;5043635;28;20091;-32
2023/04/23 01:26:04;;;;;;;2.30;1.50;;;;;;;18.73;43.20;96283.81;5036147;28;20417;-32
2023/04/23 01:28:30;;;;;;;4.63;1.95;;;;;;;18.79;43.47;96282.59;5035778;28;20029;-30
2023/04/23 01:30:55;;;;;;;2.53;1.58;;;;;;;18.90;43.67;96285.50;5043136;28;20025;-30
2023/04/23 01:33:22;;;;;;;2.83;1.80;;;;;;;18.89;43.24;96285.97;5035634;28;20492;-30
2023/04/23 01:35:48;;;;;;;3.40;1.73;;;;;;;18.82;43.49;96276.16;5036003;28;20136;-31
2023/04/23 01:38:13;;;;;;;2.97;1.70;;;;;;;18.72;43.48;96276.78;5035138;28;20029;-31
2023/04/23 01:40:39;;;;;;;2.75;1.98;;;;;;;18.74;43.21;96272.34;5041108;28;20021;-30
2023/04/23 01:43:07;;;;;;;2.75;2.28;;;;;;;18.80;43.01;96275.88;5041952;28;20026;-30
2023/04/23 01:45:32;;;;;;;7.78;3.72;;;;;;;18.84;42.62;96273.69;5035679;28;20097;-32
2023/04/23 01:47:59;;;;;;;10.50;5.95;;;;;;;18.64;43.03;96266.25;5035612;28;20444;-30
2023/04/23 01:50:26;;;;;;;16.30;9.68;;;;;;;18.67;43.36;96259.00;5035465;28;20026;-31
2023/04/23 01:52:52;;;;;;;7.00;4.57;;;;;;;18.52;43.56;96270.06;5034139;28;20032;-30
2023/04/23 01:55:20;;;;;;;5.57;3.47;;;;;;;18.63;43.61;96266.72;5038360;28;20026;-30
2023/04/23 01:57:46;;;;;;;4.40;3.50;;;;;;;18.77;43.39;96265.13;5039311;28;20025;-30
2023/04/23 02:00:13;;;;;;;6.32;2.80;;;;;;;18.64;43.72;96270.97;5034016;28;20075;-30
2023/04/23 02:02:41;;;;;;;4.82;3.15;;;;;;;18.71;44.18;96267.03;5035101;28;20021;-30
2023/04/23 02:05:17;;;;;;;3.42;2.80;;;;;;;18.84;43.55;96270.16;5041921;28;20050;-30
2023/04/23 02:07:43;;;;;;;4.32;3.08;;;;;;;18.58;44.19;96276.41;5029386;28;20097;-30
2023/04/23 02:10:09;;;;;;;4.55;3.13;;;;;;;18.62;43.99;96267.97;5042126;28;20047;-29
2023/04/23 02:12:36;;;;;;;3.53;2.90;;;;;;;18.46;44.08;96266.50;5042761;28;20025;-32
2023/04/23 02:15:01;;;;;;;4.35;2.72;;;;;;;18.34;44.66;96264.09;5034534;28;20017;-31
2023/04/23 02:17:28;;;;;;;3.55;2.75;;;;;;;18.60;43.97;96273.16;5035367;28;20032;-31
2023/04/23 02:19:54;;;;;;;4.15;2.58;;;;;;;18.48;44.04;96268.75;5034553;28;20021;-30
2023/04/23 02:22:21;;;;;;;4.00;2.33;;;;;;;18.63;43.26;96267.47;5034429;28;20072;-30
2023/04/23 02:24:47;;;;;;;2.80;1.85;;;;;;;18.56;43.15;96269.84;5043888;28;20116;-30
2023/04/23 02:27:12;;;;;;;3.40;2.00;;;;;;;18.51;43.38;96265.81;5039151;28;20108;-30
2023/04/23 02:29:38;;;;;;;3.25;1.95;;;;;;;18.72;42.88;96266.56;5034870;28;20473;-30
2023/04/23 02:32:03;;;;;;;2.47;1.85;;;;;;;18.75;42.78;96264.84;5034681;28;20021;-30
2023/04/23 02:34:29;;;;;;;2.70;1.95;;;;;;;18.78;42.67;96259.16;5034783;28;20025;-30
2023/04/23 02:36:56;;;;;;;2.75;2.25;;;;;;;18.50;43.35;96261.56;5035011;28;20392;-31
2023/04/23 02:39:21;;;;;;;3.20;2.25;;;;;;;18.53;43.43;96270.84;5041880;28;20026;-30
2023/04/23 02:41:47;;;;;;;3.42;2.38;;;;;;;18.67;43.47;96270.00;5042155;28;20021;-30
2023/04/23 02:44:12;;;;;;;4.75;2.80;;;;;;;18.41;44.43;96272.69;5034548;28;20025;-32
2023/04/23 02:46:37;;;;;;;6.47;3.90;;;;;;;18.63;44.87;96259.25;5040897;28;20029;-31
2023/04/23 02:49:03;;;;;;;5.85;3.95;;;;;;;18.55;45.62;96271.84;5034384;28;20478;-30
2023/04/23 02:51:30;;;;;;;6.00;3.75;;;;;;;18.73;45.72;96270.06;5039037;28;20029;-30
2023/04/23 02:53:56;;;;;;;5.22;4.15;;;;;;;18.60;45.63;96265.69;5036658;28;20033;-31
2023/04/23 02:56:21;;;;;;;5.78;4.13;;;;;;;18.49;45.70;96267.53;5026756;28;20025;-31
2023/04/23 02:58:47;;;;;;;5.57;3.33;;;;;;;18.51;45.39;96270.56;5034189;28;20025;-32
2023/04/23 03:01:12;;;;;;;5.03;3.10;;;;;;;18.63;45.23;96266.72;5034313;28;20110;-30
2023/04/23 03:03:38;;;;;;;5.55;3.30;;;;;;;18.44;45.16;96268.97;5037643;28;20017;-31
2023/04/23 03:06:05;;;;;;;4.07;3.03;;;;;;;18.47;44.62;96270.00;5043353;28;20482;-30
2023/04/23 03:08:32;;;;;;;3.92;2.92;;;;;;;18.71;43.94;96281.53;5041193;28;20024;-32
2023/04/23 03:10:58;;;;;;;4.80;2.70;;;;;;;18.53;44.09;96277.06;5034022;28;20481;-30
2023/04/23 03:13:24;;;;;;;3.40;2.38;;;;;;;18.54;44.08;96272.34;5034087;28;20035;-31
2023/04/23 03:15:51;;;;;;;3.80;2.40;;;;;;;18.57;43.73;96276.84;5033932;28;20018;-31
2023/04/23 03:18:16;;;;;;;3.63;2.20;;;;;;;18.52;43.52;96277.56;5040737;28;20028;-30
2023/04/23 03:20:42;;;;;;;2.72;2.13;;;;;;;18.56;42.95;96283.56;5036530;28;20380;-30
2023/04/23 03:23:08;;;;;;;2.42;1.80;;;;;;;18.50;42.80;96291.00;5045661;28;20048;-30
2023/04/23 03:25:33;;;;;;;2.70;1.77;;;;;;;18.54;42.72;96291.56;5033898;28;20060;-30
2023/04/23 03:27:59;;;;;;;2.38;1.60;;;;;;;18.52;42.70;96280.31;5033856;28;20430;-30
2023/04/23 03:30:25;;;;;;;4.03;1.73;;;;;;;18.48;42.59;96283.25;5033646;28;20021;-31
2023/04/23 03:32:52;;;;;;;2.00;1.63;;;;;;;18.52;42.58;96285.78;5033770;28;20029;-30
2023/04/23 03:35:17;;;;;;;2.67;1.63;;;;;;;18.47;42.64;96284.47;5040698;28;20021;-30
2023/04/23 03:37:42;;;;;;;2.60;1.67;;;;;;;18.48;42.50;96288.00;5030729;28;20370;-31
2023/04/23 03:40:08;;;;;;;1.60;1.40;;;;;;;18.60;42.41;96286.91;5037298;28;20067;-30
2023/04/23 03:42:34;;;;;;;2.03;1.52;;;;;;;18.59;42.24;96285.41;5037205;28;20442;-30
2023/04/23 03:45:00;;;;;;;2.17;1.30;;;;;;;18.56;42.27;96278.84;5034890;28;21350;-32
2023/04/23 03:47:26;;;;;;;2.88;1.80;;;;;;;18.52;42.70;96280.31;5044182;28;20462;-30
2023/04/23 03:49:52;;;;;;;2.85;1.70;;;;;;;18.31;42.59;96283.03;5035701;28;20018;-32
2023/04/23 03:52:18;;;;;;;2.85;1.50;;;;;;;18.34;42.74;96280.56;5039770;28;20017;-31
2023/04/23 03:54:43;;;;;;;1.90;1.40;;;;;;;18.43;42.45;96285.91;5033352;28;20026;-30
2023/04/23 03:57:11;;;;;;;1.75;1.45;;;;;;;18.38;42.66;96279.16;5033853;28;20021;-30
2023/04/23 03:59:36;;;;;;;2.20;1.52;;;;;;;18.26;42.43;96283.00;5033403;28;20453;-31
2023/04/23 04:02:03;;;;;;;2.10;1.40;;;;;;;18.45;42.09;96289.69;5033295;28;20147;-30
2023/04/23 04:04:29;;;;;;;2.28;1.42;;;;;;;18.24;42.34;96291.69;5033594;28;20411;-30
2023/04/23 04:06:54;;;;;;;2.40;1.77;;;;;;;18.43;42.37;96291.41;5033336;28;20100;-30
2023/04/23 04:09:20;;;;;;;4.50;1.98;;;;;;;18.51;42.23;96295.28;5033774;28;20521;-33
2023/04/23 04:11:46;;;;;;;2.83;1.73;;;;;;;18.60;42.27;96289.66;5033431;28;20014;-31
2023/04/23 04:14:13;;;;;;;2.60;1.80;;;;;;;18.58;42.01;96300.38;5032867;28;20485;-30
2023/04/23 04:16:38;;;;;;;3.50;1.73;;;;;;;18.40;42.50;96295.13;5038237;28;20107;-31
2023/04/23 04:19:06;;;;;;;2.58;1.80;;;;;;;18.49;42.27;96297.75;5037183;28;20484;-30
2023/04/23 04:21:32;;;;;;;3.38;2.17;;;;;;;18.46;42.06;96301.44;5044425;28;20029;-31
2023/04/23 04:24:00;;;;;;;4.10;1.80;;;;;;;18.37;42.41;96312.56;5043317;28;20092;-31
2023/04/23 04:26:27;;;;;;;4.57;1.90;;;;;;;18.55;42.09;96306.78;5036810;28;20388;-31
2023/04/23 04:28:53;;;;;;;3.83;2.10;;;;;;;18.33;42.47;96318.25;5037102;28;20461;-32
2023/04/23 04:31:20;;;;;;;4.93;1.90;;;;;;;18.50;42.15;96308.25;5043956;28;20106;-31
2023/04/23 04:33:46;;;;;;;4.13;1.88;;;;;;;18.48;42.13;96313.47;5044285;28;20056;-31
2023/04/23 04:36:13;;;;;;;2.92;1.52;;;;;;;18.59;42.24;96321.09;5036886;28;20425;-30
2023/04/23 04:38:38;;;;;;;2.58;1.73;;;;;;;18.36;42.41;96316.53;5036618;28;20373;-30
2023/04/23 04:41:05;;;;;;;3.47;1.50;;;;;;;18.55;41.99;96315.03;5044111;28;20032;-31
2023/04/23 04:43:31;;;;;;;3.58;2.53;;;;;;;18.46;42.01;96312.44;5036733;28;20029;-30
2023/04/23 04:45:57;;;;;;;3.65;1.75;;;;;;;18.30;42.43;96310.97;5044639;28;20020;-31
2023/04/23 04:48:23;;;;;;;2.30;1.60;;;;;;;18.38;42.28;96314.09;5042483;28;20028;-30
2023/04/23 04:50:49;;;;;;;6.10;1.95;;;;;;;18.56;42.29;96313.78;5036662;28;20025;-30
2023/04/23 04:53:14;;;;;;;4.47;2.20;;;;;;;18.39;42.35;96312.84;5036813;28;20111;-31
2023/04/23 04:55:40;;;;;;;3.95;2.10;;;;;;;18.51;42.39;96311.75;5036516;28;20034;-30
2023/04/23 04:58:06;;;;;;;3.70;2.10;;;;;;;18.42;42.50;96320.84;5035092;28;20023;-30
2023/04/23 05:00:31;;;;;;;4.22;2.20;;;;;;;18.37;42.69;96323.56;5043890;28;20040;-30
2023/04/23 05:02:57;;;;;;;3.50;2.03;;;;;;;18.42;42.63;96320.84;5036223;28;20013;-31
2023/04/23 05:05:24;;;;;;;2.85;2.10;;;;;;;18.37;43.01;96323.56;5035965;28;20045;-30
2023/04/23 05:07:50;;;;;;;3.30;2.60;;;;;;;18.47;42.73;96324.91;5036423;28;20029;-31
2023/04/23 05:10:15;;;;;;;3.10;2.20;;;;;;;18.27;43.06;96318.19;5036483;28;20032;-31
2023/04/23 05:12:42;;;;;;;3.72;2.42;;;;;;;18.47;42.76;96324.91;5039431;28;20385;-31
2023/04/23 05:15:09;;;;;;;4.45;2.60;;;;;;;18.55;42.67;96324.00;5039406;28;20028;-30
2023/04/23 05:17:36;;;;;;;3.90;2.35;;;;;;;18.28;43.78;96322.47;5036286;28;20021;-30
2023/04/23 05:20:02;;;;;;;3.63;2.45;;;;;;;18.23;43.92;96330.59;5036233;28;20026;-31
2023/04/23 05:22:27;;;;;;;4.88;2.47;;;;;;;18.23;43.93;96330.59;5043508;28;20032;-30
2023/04/23 05:24:53;;;;;;;3.83;2.13;;;;;;;18.30;43.53;96325.47;5036008;28;20022;-30
2023/04/23 05:27:18;;;;;;;4.05;2.25;;;;;;;18.41;43.29;96329.59;5042928;28;20025;-31
2023/04/23 05:29:44;;;;;;;3.10;2.00;;;;;;;18.33;43.43;96329.25;5035905;28;20033;-31
2023/04/23 05:32:09;;;;;;;2.55;2.10;;;;;;;18.19;43.73;96328.06;5035616;28;20535;-31
2023/04/23 05:34:35;;;;;;;3.15;2.38;;;;;;;18.57;43.27;96332.53;5035840;28;20108;-31
2023/04/23 05:37:01;;;;;;;4.85;2.60;;;;;;;18.37;43.92;96331.78;5035849;28;20100;-30
2023/04/23 05:39:27;;;;;;;5.18;2.70;;;;;;;18.60;43.35;96334.34;5040070;28;20028;-30
2023/04/23 05:41:52;;;;;;;4.05;2.47;;;;;;;18.29;43.94;96332.22;5036585;28;20436;-30
2023/04/23 05:44:18;;;;;;;4.30;2.25;;;;;;;18.55;43.02;96342.47;5035739;28;20033;-30
2023/04/23 05:46:43;;;;;;;2.97;2.25;;;;;;;18.42;43.17;96342.81;5042358;28;20025;-30
2023/04/23 05:49:09;;;;;;;2.97;2.20;;;;;;;18.58;43.05;96345.06;5036163;28;20461;-30
2023/04/23 05:51:34;;;;;;;3.55;2.40;;;;;;;18.40;43.17;96339.81;5035343;28;20026;-30
2023/04/23 05:54:00;;;;;;;2.78;1.85;;;;;;;18.44;43.09;96340.34;5042510;28;20025;-30
2023/04/23 05:56:25;;;;;;;5.13;2.47;;;;;;;18.54;42.73;96354.72;5035126;28;20386;-30
2023/04/23 05:58:51;;;;;;;12.35;2.42;;;;;;;18.59;42.77;96354.06;5035386;28;20024;-30
2023/04/23 06:01:16;;;;;;;3.05;2.17;;;;;;;18.53;42.28;96348.47;5035536;28;20106;-30
2023/04/23 06:03:44;;;;;;;2.58;1.90;;;;;;;18.51;42.55;96347.44;5039041;28;20016;-32
2023/04/23 06:06:11;;;;;;;2.53;2.20;;;;;;;18.50;42.50;96345.94;5044032;28;20037;-30
2023/04/23 06:08:37;;;;;;;4.20;2.20;;;;;;;18.51;42.98;96356.44;5035252;28;20025;-30
2023/04/23 06:11:03;;;;;;;3.25;2.28;;;;;;;18.36;43.58;96349.50;5034893;28;20029;-30
2023/04/23 06:13:29;;;;;;;2.72;2.00;;;;;;;18.60;43.50;96350.06;5035254;28;20142;-31
2023/04/23 06:15:55;;;;;;;3.38;2.38;;;;;;;18.74;43.43;96346.50;5035088;28;20025;-30
2023/04/23 06:18:21;;;;;;;3.15;2.42;;;;;;;18.49;44.00;96339.69;5034683;28;20021;-30
2023/04/23 06:20:47;;;;;;;2.67;2.10;;;;;;;18.50;43.69;96345.94;5041972;28;20029;-31
2023/04/23 06:23:13;;;;;;;3.30;2.30;;;;;;;18.63;43.92;96351.88;5033616;28;20116;-30
2023/04/23 06:25:39;;;;;;;3.17;2.22;;;;;;;18.63;44.02;96357.38;5034577;28;20414;-32
2023/04/23 06:28:05;;;;;;;5.43;2.45;;;;;;;18.47;44.41;96355.88;5034807;28;20096;-30
2023/04/23 06:30:30;;;;;;;3.67;2.53;;;;;;;18.67;44.33;96358.66;5034969;28;20057;-30
2023/04/23 06:32:56;;;;;;;3.40;2.67;;;;;;;18.84;43.92;96353.34;5040838;28;20072;-30
2023/04/23 06:35:21;;;;;;;3.20;2.08;;;;;;;18.64;44.46;96356.13;5034308;28;20075;-30
2023/04/23 06:37:47;;;;;;;7.22;3.22;;;;;;;18.78;44.15;96358.03;5034319;28;20022;-29
2023/04/23 06:40:13;;;;;;;5.25;2.90;;;;;;;18.74;44.27;96357.50;5038535;28;20067;-30
2023/04/23 06:42:38;;;;;;;3.67;2.72;;;;;;;18.72;44.39;96356.47;5037145;28;20112;-29
2023/04/23 06:45:05;;;;;;;3.28;2.30;;;;;;;18.57;44.61;96362.75;5035263;28;20108;-31
2023/04/23 06:47:30;;;;;;;4.35;2.95;;;;;;;18.64;44.61;96376.13;5034320;28;20044;-29
2023/04/23 06:49:58;;;;;;;3.53;2.50;;;;;;;18.68;44.55;96364.91;5041702;28;20037;-30
2023/04/23 06:52:24;;;;;;;4.50;3.00;;;;;;;18.86;44.48;96372.13;5034372;28;20017;-30
2023/04/23 06:54:50;;;;;;;3.88;2.10;;;;;;;18.64;45.09;96370.63;5033781;28;20032;-30
2023/04/23 06:57:15;;;;;;;5.10;2.65;;;;;;;18.78;44.21;96380.03;5034884;28;20495;-30
2023/04/23 06:59:40;;;;;;;4.80;2.17;;;;;;;18.69;44.75;96371.91;5041478;28;20026;-29
2023/04/23 07:02:06;;;;;;;4.78;2.28;;;;;;;18.96;44.21;96362.47;5041708;28;20025;-30
2023/04/23 07:04:32;;;;;;;4.70;2.83;;;;;;;18.82;45.28;96360.56;5041257;28;20489;-31
2023/04/23 07:06:57;;;;;;;4.68;3.40;;;;;;;18.75;46.55;96364.50;5034107;28;20024;-29
2023/04/23 07:09:23;;;;;;;4.65;2.92;;;;;;;18.90;45.86;96361.69;5034463;28;20033;-30
2023/04/23 07:11:49;;;;;;;8.18;3.90;;;;;;;18.90;46.53;96370.69;5038767;28;20078;-29
2023/04/23 07:14:14;;;;;;;6.68;3.50;;;;;;;18.75;46.41;96374.72;5036685;28;20104;-30
2023/04/23 07:16:40;;;;;;;4.38;3.03;;;;;;;18.98;46.01;96362.75;5040975;28;20458;-30
2023/04/23 07:19:05;;;;;;;6.40;3.40;;;;;;;18.97;46.12;96364.75;5033896;28;20017;-29
2023/04/23 07:21:31;;;;;;;9.27;3.90;;;;;;;19.06;46.36;96366.56;5034921;28;20063;-30
2023/04/23 07:24:05;;;;;;;8.07;3.85;;;;;;;19.13;46.01;96368.91;5039740;28;20018;-30
2023/04/23 07:26:31;;;;;;;7.65;3.78;;;;;;;19.22;45.80;96368.75;5035108;28;20417;-29
2023/04/23 07:28:57;;;;;;;6.25;3.25;;;;;;;19.05;45.99;96375.31;5047791;28;20443;-30
2023/04/23 07:31:22;;;;;;;6.00;3.40;;;;;;;19.03;46.17;96384.06;5032552;28;20040;-29
2023/04/23 07:33:48;;;;;;;5.10;3.33;;;;;;;19.21;45.88;96375.50;5034111;28;20029;-30
2023/04/23 07:36:14;;;;;;;8.73;3.80;;;;;;;19.04;46.24;96382.06;5033805;28;20029;-30
2023/04/23 07:38:39;;;;;;;5.40;4.00;;;;;;;19.05;46.30;96389.81;5040900;28;20029;-30
2023/04/23 07:41:05;;;;;;;7.43;4.35;;;;;;;19.27;45.92;96389.31;5034751;28;20024;-29
2023/04/23 07:43:30;;;;;;;5.43;3.55;;;;;;;19.19;46.19;96386.22;5033629;28;20030;-30
2023/04/23 07:45:56;;;;;;;5.43;3.60;;;;;;;19.09;46.24;96381.34;5040790;28;20024;-29
2023/04/23 07:48:21;;;;;;;5.25;3.90;;;;;;;19.21;45.88;96382.97;5033679;28;20461;-30
2023/04/23 07:50:47;;;;;;;5.03;3.60;;;;;;;19.03;45.94;96378.56;5035005;28;20032;-30
2023/04/23 07:53:12;;;;;;;7.85;3.97;;;;;;;19.00;45.54;96379.53;5045098;28;20031;-30
2023/04/23 07:55:38;;;;;;;6.13;3.40;;;;;;;19.13;45.15;96388.16;5044679;28;20108;-29
2023/04/23 07:58:03;;;;;;;6.50;3.30;;;;;;;19.26;44.95;96387.78;5037496;28;20021;-29
2023/04/23 08:00:29;;;;;;;5.35;3.08;;;;;;;19.42;44.94;96378.94;5037679;28;20555;-29
2023/04/23 08:02:54;;;;;;;4.60;3.10;;;;;;;19.27;45.12;96372.81;5037549;28;20021;-29
2023/04/23 08:05:20;;;;;;;4.40;2.83;;;;;;;19.05;45.61;96378.81;5044500;28;20112;-30
2023/04/23 08:07:45;;;;;;;7.32;3.22;;;;;;;19.43;44.71;96372.19;5042148;28;20513;-29
2023/04/23 08:10:10;;;;;;;3.67;2.85;;;;;;;19.42;44.86;96376.19;5039656;28;20040;-30
2023/04/23 08:12:36;;;;;;;6.32;3.10;;;;;;;19.12;45.57;96372.91;5037524;28;20389;-30
2023/04/23 08:15:02;;;;;;;4.30;2.95;;;;;;;19.35;45.18;96376.63;5037430;28;20029;-29
2023/04/23 08:17:27;;;;;;;4.43;3.13;;;;;;;19.32;45.08;96372.09;5037517;28;20032;-30
2023/04/23 08:19:53;;;;;;;4.25;2.85;;;;;;;19.33;45.34;96381.84;5037263;28;20021;-29
2023/04/23 08:22:18;;;;;;;4.95;3.28;;;;;;;19.21;45.59;96382.97;5051426;28;20402;-30
2023/04/23 08:24:47;;;;;;;4.35;2.65;;;;;;;19.19;44.53;96382.72;5037377;28;20530;-30
2023/04/23 08:27:12;;;;;;;3.08;2.25;;;;;;;19.30;43.84;96380.81;5042480;28;20073;-29
2023/04/23 08:29:37;;;;;;;5.68;2.40;;;;;;;19.33;44.10;96379.84;5038711;28;20030;-29
2023/04/23 08:32:03;;;;;;;4.93;2.70;;;;;;;19.34;43.88;96391.63;5035504;28;20473;-30
2023/04/23 08:34:28;;;;;;;2.95;2.40;;;;;;;19.47;43.60;96393.97;5043648;28;20020;-31
2023/04/23 08:36:54;;;;;;;3.38;2.58;;;;;;;19.32;43.76;96385.84;5038799;28;20033;-29
2023/04/23 08:39:19;;;;;;;12.65;3.28;;;;;;;19.34;43.84;96391.63;5040874;28;20029;-30
2023/04/23 08:41:53;;;;;;;5.80;2.90;;;;;;;19.37;44.00;96379.66;5037146;28;20026;-30
2023/04/23 08:44:20;;;;;;;;;;;;;;;19.41;44.41;96380.16;5037274;28;20120;-30
2023/04/23 08:46:46;;;;;;;5.80;3.13;;;;;;;19.46;44.18;96379.47;5043228;28;19916;-30
2023/04/23 08:49:16;;;;;;;7.55;3.45;;;;;;;19.42;44.62;96381.69;5043956;28;20056;-30
2023/04/23 08:51:51;;;;;;;6.50;3.40;;;;;;;19.36;45.04;96383.63;5043772;28;20123;-29
2023/04/23 08:54:26;;;;;;;5.03;3.40;;;;;;;19.48;45.00;96381.75;5043809;28;20076;-30
2023/04/23 08:56:57;;;;;;;5.50;3.58;;;;;;;19.46;44.90;96370.47;5036158;28;20436;-30
2023/04/23 08:59:23;;;;;;;5.25;3.20;;;;;;;19.58;44.78;96366.59;5043893;28;20080;-30
2023/04/23 09:01:49;;;;;;;7.90;3.42;;;;;;;19.42;45.52;96367.94;5042863;28;20063;-29
2023/04/23 09:04:19;;;;;;;7.32;4.10;;;;;;;19.51;45.48;96367.06;5036193;28;20042;-31
2023/04/23 09:06:45;;;;;;;7.72;4.32;;;;;;;19.58;45.47;96367.38;5036504;28;20466;-30
2023/04/23 09:09:14;;;;;;;7.75;4.65;;;;;;;19.42;45.63;96359.69;5036559;28;20075;-30
2023/04/23 09:11:40;;;;;;;5.78;3.90;;;;;;;19.55;44.89;96357.31;5029656;28;20428;-30
2023/04/23 09:14:07;;;;;;;5.93;3.70;;;;;;;19.57;44.84;96354.84;5042814;28;20449;-30
2023/04/23 09:16:32;;;;;;;6.22;3.47;;;;;;;19.56;44.26;96363.59;5037990;28;20109;-29
2023/04/23 09:18:58;;;;;;;6.38;3.60;;;;;;;19.58;44.33;96361.88;5041718;28;20555;-30
2023/04/23 09:21:23;;;;;;;6.28;3.25;;;;;;;19.58;43.08;96361.88;5035815;28;20025;-30
2023/04/23 09:23:52;;;;;;;6.28;3.28;;;;;;;19.56;43.05;96358.84;5043330;28;20048;-30
2023/04/23 09:26:21;;;;;;;6.82;3.13;;;;;;;19.57;43.30;96365.84;5035777;28;20545;-30
2023/04/23 09:28:52;;;;;;;4.57;3.55;;;;;;;19.66;43.50;96357.41;5043299;28;20029;-30
2023/04/23 09:31:24;;;;;;;7.13;3.42;;;;;;;19.65;43.78;96364.19;5042092;28;20373;-30
2023/04/23 09:33:53;;;;;;;3.85;2.88;;;;;;;19.76;42.79;96366.28;5036197;28;20495;-30
2023/04/23 09:36:22;;;;;;;4.15;2.83;;;;;;;19.62;42.62;96364.41;5035544;28;20025;-30
2023/04/23 09:38:48;;;;;;;5.80;2.42;;;;;;;19.69;42.47;96359.19;5032966;28;20033;-30
2023/04/23 09:41:24;;;;;;;2.70;2.00;;;;;;;19.68;41.72;96374.19;5042670;28;20029;-31
2023/04/23 09:43:54;;;;;;;3.85;2.22;;;;;;;19.65;41.61;96366.19;5042721;28;20048;-30
2023/04/23 09:46:33;;;;;;;2.67;1.80;;;;;;;19.79;41.03;96375.53;5042427;28;20018;-29
2023/04/23 09:49:01;;;;;;;4.72;1.85;;;;;;;19.75;40.42;96370.25;5036022;28;20021;-29
2023/04/23 09:51:29;;;;;;;2.80;1.80;;;;;;;19.78;40.48;96363.75;5035536;28;20021;-29
2023/04/23 09:53:55;;;;;;;4.30;2.13;;;;;;;19.80;40.50;96366.03;5042815;28;20025;-31
2023/04/23 09:56:20;;;;;;;3.35;2.10;;;;;;;19.76;40.10;96366.28;5038354;28;20031;-30
2023/04/23 09:58:46;;;;;;;3.00;1.95;;;;;;;19.80;39.59;96363.28;5039696;28;20102;-29
2023/04/23 10:01:14;;;;;;;2.45;1.60;;;;;;;19.85;39.51;96365.31;5035232;28;20036;-31
2023/04/23 10:03:45;;;;;;;5.20;2.17;;;;;;;19.86;39.68;96370.34;5040123;28;20067;-32
2023/04/23 10:06:14;;;;;;;2.70;1.60;;;;;;;19.86;39.55;96369.59;5036987;28;20049;-30
2023/04/23 10:08:40;;;;;;;3.50;1.35;;;;;;;19.86;39.71;96361.34;5035033;28;20059;-30
2023/04/23 10:11:06;;;;;;;2.70;1.50;;;;;;;19.91;39.99;96366.09;5042074;28;20033;-30
2023/04/23 10:13:35;;;;;;;3.53;2.15;;;;;;;19.90;40.36;96365.38;5034457;28;20017;-32
2023/04/23 10:16:03;;;;;;;4.57;2.30;;;;;;;19.92;40.76;96362.88;5034886;28;20140;-30
2023/04/23 10:18:30;;;;;;;3.67;1.80;;;;;;;19.90;41.10;96353.63;5035257;28;20031;-29
2023/04/23 10:20:56;;;;;;;3.15;1.92;;;;;;;19.99;39.93;96354.19;5035022;28;20100;-30
2023/04/23 10:23:23;;;;;;;2.92;1.63;;;;;;;19.97;40.04;96359.41;5049144;28;20071;-30
2023/04/23 10:25:52;;;;;;;2.10;1.50;;;;;;;19.95;40.15;96355.63;5037662;28;20017;-32
2023/04/23 10:28:25;;;;;;;3.92;1.40;;;;;;;20.01;40.16;96357.19;5045493;28;20445;-30
2023/04/23 10:30:52;;;;;;;4.85;2.90;;;;;;;20.06;39.94;96352.97;5034745;28;20045;-31
2023/04/23 10:33:19;;;;;;;4.63;2.30;;;;;;;20.14;39.25;96358.78;5034896;28;20064;-29
2023/04/23 10:35:46;;;;;;;6.57;3.40;;;;;;;20.04;39.25;96358.19;5035673;28;20080;-29
2023/04/23 10:38:13;;;;;;;3.88;2.05;;;;;;;20.13;39.02;96358.03;5040534;28;20496;-30
2023/04/23 10:40:42;;;;;;;5.40;2.20;;;;;;;20.15;39.19;96366.56;5039145;28;20535;-30
2023/04/23 10:43:08;;;;;;;5.93;2.05;;;;;;;20.12;40.46;96364.78;5027139;28;20538;-30
2023/04/23 10:45:33;;;;;;;2.95;1.75;;;;;;;20.09;40.95;96363.00;5034597;28;20108;-30
2023/04/23 10:47:59;;;;;;;2.83;2.00;;;;;;;20.18;41.26;96354.53;5034530;28;20029;-30
2023/04/23 10:50:33;;;;;;;1.98;1.50;;;;;;;20.15;42.21;96347.28;5034479;28;20112;-30
2023/04/23 10:53:00;;;;;;;2.13;1.55;;;;;;;20.20;42.64;96349.28;5041832;28;20035;-30
2023/04/23 10:55:27;;;;;;;2.63;1.30;;;;;;;20.22;42.79;96348.81;5034199;28;20035;-29
2023/04/23 10:57:58;;;;;;;2.35;1.73;;;;;;;20.20;42.76;96349.28;5034033;28;20473;-29
2023/04/23 11:00:24;;;;;;;1.70;1.20;;;;;;;20.18;43.15;96343.50;5041066;28;20025;-30
2023/04/23 11:02:51;;;;;;;3.75;1.40;;;;;;;20.16;43.15;96348.00;5034332;28;20030;-30
2023/04/23 11:05:17;;;;;;;3.85;1.35;;;;;;;20.25;43.27;96350.59;5041447;28;20053;-30
2023/04/23 11:08:01;;;;;;;3.13;1.40;;;;;;;20.18;43.62;96345.50;5039792;28;20017;-30
2023/04/23 11:10:27;;;;;;;4.18;1.13;;;;;;;20.20;43.71;96349.28;5034613;28;20018;-30
2023/04/23 11:12:55;;;;;;;3.75;1.90;;;;;;;20.26;43.92;96344.59;5034038;28;20024;-30
2023/04/23 11:15:20;;;;;;;2.63;1.55;;;;;;;20.15;44.25;96346.53;5034122;28;20026;-30
2023/04/23 11:17:47;;;;;;;3.15;1.60;;;;;;;20.19;44.43;96338.75;5033950;28;20025;-31
2023/04/23 11:20:14;;;;;;;2.10;1.50;;;;;;;20.22;44.45;96335.78;5040653;28;20030;-31
2023/04/23 11:22:42;;;;;;;2.65;1.38;;;;;;;20.22;44.95;96330.28;5040807;28;20028;-30
2023/04/23 11:25:10;;;;;;;2.53;1.33;;;;;;;20.26;44.79;96325.31;5031974;28;20044;-30
2023/04/23 11:27:41;;;;;;;2.50;1.30;;;;;;;20.35;44.39;96322.38;5041036;28;20104;-31
2023/04/23 11:30:12;;;;;;;3.28;1.38;;;;;;;20.38;44.25;96321.38;5032371;28;20025;-31